Time;durP1;ratioP1;P1;durP2;ratioP2;P2;SDS_P1;SDS_P2;PMS_P1;PMS_P2;Temp;Humidity;BMP_temperature;BMP_pressure;BME280_temperature;BME280_humidity;BME280_pressure;Samples;Min_cycle;Max_cycle;Signal;HPM_P1;HPM_P2
2021/08/22 00:00:33;;;;;;;;;4.33;3.00;;;;;;;;4982919;28;46146;-83
2021/08/22 00:02:58;;;;;;;;;7.00;6.33;;;;;;;;5000789;28;45418;-83
2021/08/22 00:05:24;;;;;;;;;7.00;6.00;;;;;;;;4983065;28;45380;-83
2021/08/22 00:07:49;;;;;;;;;5.00;4.50;;;;;;;;5000118;28;45363;-82
2021/08/22 00:10:15;;;;;;;;;5.00;5.00;;;;;;;;4983483;28;48265;-80
2021/08/22 00:12:40;;;;;;;;;6.75;6.00;;;;;;;;4998571;28;45455;-80
2021/08/22 00:15:06;;;;;;;;;7.67;5.00;;;;;;;;4983410;28;45947;-81
2021/08/22 00:17:32;;;;;;;;;8.00;6.50;;;;;;;;4998563;28;45414;-81
2021/08/22 00:19:57;;;;;;;;;12.00;6.33;;;;;;;;4966952;28;47100;-82
2021/08/22 00:22:22;;;;;;;;;7.00;5.00;;;;;;;;4978717;28;45974;-81
2021/08/22 00:24:47;;;;;;;;;6.33;6.33;;;;;;;;4986217;28;45431;-82
2021/08/22 00:27:12;;;;;;;;;10.00;8.00;;;;;;;;4995968;28;45261;-81
2021/08/22 00:29:38;;;;;;;;;8.00;5.25;;;;;;;;5000563;28;45341;-81
2021/08/22 00:32:03;;;;;;;;;12.50;8.25;;;;;;;;4993835;28;45408;-81
2021/08/22 00:34:28;;;;;;;;;6.00;6.00;;;;;;;;4989659;28;45479;-81
2021/08/22 00:36:54;;;;;;;;;9.00;5.67;;;;;;;;4999501;28;45602;-81
2021/08/22 00:39:20;;;;;;;;;6.25;6.00;;;;;;;;4998183;28;45586;-81
2021/08/22 00:41:45;;;;;;;;;6.50;5.75;;;;;;;;4997919;28;45595;-82
2021/08/22 00:44:11;;;;;;;;;7.00;5.33;;;;;;;;4998648;28;45270;-81
2021/08/22 00:46:36;;;;;;;;;9.00;6.67;;;;;;;;4998858;28;45325;-81
2021/08/22 00:49:02;;;;;;;;;6.00;4.00;;;;;;;;4999984;28;45254;-82
2021/08/22 00:51:27;;;;;;;;;5.50;4.50;;;;;;;;5000692;28;45221;-82
2021/08/22 00:53:52;;;;;;;;;6.00;6.00;;;;;;;;4998748;28;45164;-81
2021/08/22 00:56:18;;;;;;;;;5.67;5.33;;;;;;;;5000552;28;45330;-82
2021/08/22 00:58:46;;;;;;;;;6.00;6.00;;;;;;;;5001018;28;45249;-82
2021/08/22 01:01:16;;;;;;;;;7.75;7.00;;;;;;;;5001656;28;45553;-82
2021/08/22 01:03:46;;;;;;;;;5.50;5.25;;;;;;;;4983677;28;45423;-81
2021/08/22 01:06:17;;;;;;;;;7.00;6.00;;;;;;;;4977918;28;45804;-82
2021/08/22 01:08:47;;;;;;;;;6.75;6.00;;;;;;;;4981026;28;47387;-82
2021/08/22 01:11:17;;;;;;;;;6.75;5.00;;;;;;;;4981000;28;45476;-82
2021/08/22 01:14:03;;;;;;;;;6.00;4.00;;;;;;;;4963702;28;45332;-82
2021/08/22 01:16:30;;;;;;;;;5.25;5.25;;;;;;;;4961020;28;45226;-81
2021/08/22 01:18:57;;;;;;;;;7.00;6.00;;;;;;;;4981143;28;46872;-82
2021/08/22 01:21:23;;;;;;;;;6.00;6.00;;;;;;;;4982020;28;45346;-82
2021/08/22 01:23:48;;;;;;;;;7.00;5.25;;;;;;;;4985203;28;45235;-82
2021/08/22 01:26:15;;;;;;;;;6.00;4.00;;;;;;;;4967566;28;45578;-82
2021/08/22 01:28:41;;;;;;;;;5.00;5.00;;;;;;;;4967569;28;47338;-82
2021/08/22 01:31:08;;;;;;;;;6.25;5.00;;;;;;;;4981299;28;46307;-82
2021/08/22 01:33:33;;;;;;;;;7.25;6.00;;;;;;;;4985189;28;45298;-82
2021/08/22 01:35:59;;;;;;;;;5.00;3.33;;;;;;;;4966250;28;45217;-81
2021/08/22 01:38:25;;;;;;;;;8.25;6.25;;;;;;;;4984129;28;45945;-81
2021/08/22 01:40:51;;;;;;;;;5.00;5.00;;;;;;;;4980837;28;45520;-81
2021/08/22 01:43:16;;;;;;;;;6.50;5.25;;;;;;;;4964091;28;45372;-82
2021/08/22 01:45:42;;;;;;;;;8.50;6.00;;;;;;;;4968097;28;45425;-81
2021/08/22 01:48:07;;;;;;;;;4.25;3.75;;;;;;;;4980932;28;45425;-82
2021/08/22 01:50:32;;;;;;;;;5.00;5.00;;;;;;;;4963283;28;46276;-81
2021/08/22 01:53:00;;;;;;;;;8.00;4.75;;;;;;;;4978194;28;45476;-81
2021/08/22 01:55:26;;;;;;;;;5.00;5.00;;;;;;;;4980067;28;45451;-81
2021/08/22 01:57:51;;;;;;;;;5.33;4.33;;;;;;;;4981555;28;46374;-82
2021/08/22 02:00:16;;;;;;;;;6.00;4.33;;;;;;;;4983436;28;45263;-81
2021/08/22 02:02:44;;;;;;;;;5.25;5.00;;;;;;;;4983253;28;45323;-82
2021/08/22 02:05:10;;;;;;;;;6.00;6.00;;;;;;;;4983484;28;45268;-81
2021/08/22 02:07:35;;;;;;;;;7.50;4.75;;;;;;;;4997240;28;46397;-82
2021/08/22 02:10:09;;;;;;;;;3.33;3.33;;;;;;;;4985190;28;45483;-82
2021/08/22 02:12:35;;;;;;;;;7.00;5.25;;;;;;;;4985463;28;45476;-82
2021/08/22 02:15:06;;;;;;;;;7.00;6.50;;;;;;;;5002737;28;45651;-81
2021/08/22 02:17:34;;;;;;;;;6.00;5.00;;;;;;;;5002767;28;46291;-82
2021/08/22 02:20:00;;;;;;;;;4.25;3.50;;;;;;;;5001692;28;45228;-81
2021/08/22 02:22:26;;;;;;;;;4.50;4.50;;;;;;;;4998845;28;45372;-81
2021/08/22 02:24:52;;;;;;;;;6.00;6.00;;;;;;;;5007967;28;45380;-81
2021/08/22 02:27:17;;;;;;;;;4.25;4.00;;;;;;;;5006328;28;45443;-81
2021/08/22 02:29:47;;;;;;;;;5.00;5.00;;;;;;;;5007789;28;45344;-81
2021/08/22 02:32:12;;;;;;;;;5.25;4.00;;;;;;;;5001143;28;45195;-81
2021/08/22 02:34:37;;;;;;;;;4.33;4.33;;;;;;;;4970433;28;45184;-81
2021/08/22 02:37:02;;;;;;;;;5.00;3.00;;;;;;;;4993613;28;46434;-81
2021/08/22 02:39:28;;;;;;;;;5.00;5.00;;;;;;;;5002549;28;45195;-81
2021/08/22 02:41:53;;;;;;;;;4.33;4.00;;;;;;;;5003513;28;45158;-81
2021/08/22 02:44:18;;;;;;;;;6.00;5.00;;;;;;;;4983119;28;45217;-81
2021/08/22 02:46:43;;;;;;;;;5.67;4.00;;;;;;;;5002421;28;45366;-82
2021/08/22 02:49:08;;;;;;;;;5.67;4.33;;;;;;;;5003012;28;45337;-81
2021/08/22 02:51:34;;;;;;;;;4.00;4.00;;;;;;;;5003460;28;45278;-81
2021/08/22 02:53:59;;;;;;;;;5.00;5.00;;;;;;;;5003293;28;45396;-82
2021/08/22 02:56:24;;;;;;;;;4.67;3.00;;;;;;;;5003082;28;45395;-81
2021/08/22 02:58:49;;;;;;;;;6.00;4.00;;;;;;;;4984855;28;45495;-81
2021/08/22 03:01:14;;;;;;;;;3.33;3.33;;;;;;;;5003329;28;45335;-81
2021/08/22 03:03:40;;;;;;;;;4.67;4.67;;;;;;;;4982682;28;45462;-81
2021/08/22 03:06:05;;;;;;;;;6.50;5.25;;;;;;;;5001361;28;45528;-81
2021/08/22 03:08:30;;;;;;;;;5.75;4.00;;;;;;;;5002673;28;45383;-81
2021/08/22 03:10:55;;;;;;;;;9.00;5.00;;;;;;;;5003017;28;45424;-81
2021/08/22 03:13:21;;;;;;;;;4.33;4.00;;;;;;;;5002793;28;45407;-81
2021/08/22 03:15:46;;;;;;;;;7.67;5.33;;;;;;;;5002574;28;45416;-81
2021/08/22 03:18:11;;;;;;;;;5.00;4.00;;;;;;;;5004205;28;45337;-82
2021/08/22 03:20:36;;;;;;;;;7.00;6.67;;;;;;;;5005621;28;45392;-81
2021/08/22 03:23:02;;;;;;;;;9.75;6.00;;;;;;;;5006488;28;45302;-81
2021/08/22 03:25:27;;;;;;;;;7.00;4.50;;;;;;;;5004887;28;46141;-81
2021/08/22 03:27:52;;;;;;;;;6.50;4.00;;;;;;;;5006753;28;45456;-81
2021/08/22 03:30:17;;;;;;;;;10.00;5.33;;;;;;;;4985653;28;45448;-81
2021/08/22 03:32:42;;;;;;;;;5.25;5.25;;;;;;;;4992835;28;45318;-81
2021/08/22 03:35:08;;;;;;;;;4.33;4.33;;;;;;;;4983943;28;45442;-81
2021/08/22 03:37:33;;;;;;;;;6.00;5.00;;;;;;;;4994151;28;45423;-81
2021/08/22 03:39:58;;;;;;;;;9.25;7.00;;;;;;;;4983124;28;45287;-81
2021/08/22 03:42:24;;;;;;;;;8.33;6.00;;;;;;;;5002037;28;45386;-81
2021/08/22 03:44:49;;;;;;;;;8.33;6.67;;;;;;;;4989498;28;45487;-81
2021/08/22 03:47:14;;;;;;;;;5.25;5.00;;;;;;;;5000917;28;45421;-81
2021/08/22 03:49:39;;;;;;;;;5.00;5.00;;;;;;;;5001989;28;45404;-81
2021/08/22 03:52:05;;;;;;;;;7.75;5.25;;;;;;;;5002165;28;45293;-81
2021/08/22 03:54:30;;;;;;;;;6.00;6.00;;;;;;;;5000993;28;45514;-81
2021/08/22 03:56:55;;;;;;;;;7.67;5.33;;;;;;;;5002227;28;45222;-81
2021/08/22 03:59:20;;;;;;;;;6.50;6.00;;;;;;;;5001369;28;45255;-82
2021/08/22 04:01:45;;;;;;;;;8.33;6.67;;;;;;;;5001519;28;45223;-81
2021/08/22 04:04:11;;;;;;;;;7.00;4.75;;;;;;;;5001768;28;45630;-81
2021/08/22 04:06:38;;;;;;;;;9.00;6.67;;;;;;;;5000998;28;45341;-81
2021/08/22 04:09:03;;;;;;;;;5.50;5.50;;;;;;;;5001008;28;45257;-81
2021/08/22 04:11:29;;;;;;;;;6.25;6.00;;;;;;;;5001109;28;45284;-81
2021/08/22 04:13:54;;;;;;;;;6.00;5.00;;;;;;;;5004293;28;45237;-81
2021/08/22 04:16:19;;;;;;;;;6.00;6.00;;;;;;;;5003429;28;45187;-81
2021/08/22 04:18:44;;;;;;;;;7.75;5.50;;;;;;;;5006130;28;45207;-81
2021/08/22 04:21:10;;;;;;;;;5.00;5.00;;;;;;;;4987244;28;45463;-81
2021/08/22 04:23:35;;;;;;;;;5.00;5.00;;;;;;;;5005857;28;45260;-81
2021/08/22 04:26:00;;;;;;;;;8.00;5.33;;;;;;;;5005588;28;45531;-81
2021/08/22 04:28:26;;;;;;;;;8.00;4.25;;;;;;;;5004446;28;45463;-81
2021/08/22 04:30:52;;;;;;;;;4.00;4.00;;;;;;;;4981154;28;45479;-81
2021/08/22 04:33:17;;;;;;;;;8.00;5.00;;;;;;;;4986114;28;45447;-81
2021/08/22 04:35:42;;;;;;;;;5.67;4.33;;;;;;;;4981195;28;45434;-81
2021/08/22 04:38:07;;;;;;;;;12.33;6.00;;;;;;;;4978701;28;45660;-81
2021/08/22 04:40:33;;;;;;;;;9.00;4.75;;;;;;;;5000169;28;45375;-81
2021/08/22 04:42:58;;;;;;;;;9.00;5.00;;;;;;;;4982076;28;47194;-81
2021/08/22 04:45:23;;;;;;;;;7.33;4.00;;;;;;;;5000605;28;45431;-81
2021/08/22 04:47:48;;;;;;;;;5.50;4.00;;;;;;;;4999657;28;45397;-81
2021/08/22 04:50:14;;;;;;;;;6.67;5.67;;;;;;;;4981217;28;45525;-81
2021/08/22 04:52:39;;;;;;;;;8.00;5.00;;;;;;;;4999980;28;45444;-81
2021/08/22 04:55:05;;;;;;;;;6.50;2.25;;;;;;;;5000559;28;45321;-81
2021/08/22 04:57:30;;;;;;;;;5.50;5.50;;;;;;;;4999884;28;45554;-81
2021/08/22 04:59:55;;;;;;;;;6.25;3.75;;;;;;;;4999665;28;45334;-81
2021/08/22 05:02:21;;;;;;;;;5.33;5.33;;;;;;;;4987599;28;45361;-81
2021/08/22 05:04:46;;;;;;;;;5.00;4.00;;;;;;;;5000170;28;45228;-81
2021/08/22 05:07:11;;;;;;;;;5.00;5.00;;;;;;;;4998644;28;45194;-81
2021/08/22 05:09:36;;;;;;;;;4.33;4.33;;;;;;;;5000042;28;45211;-81
2021/08/22 05:12:02;;;;;;;;;6.67;4.00;;;;;;;;4999642;28;45366;-81
2021/08/22 05:14:32;;;;;;;;;7.50;4.00;;;;;;;;4999227;28;45336;-81
2021/08/22 05:16:57;;;;;;;;;5.75;4.50;;;;;;;;4982639;28;45340;-81
2021/08/22 05:19:22;;;;;;;;;5.00;5.00;;;;;;;;5000194;28;45320;-81
2021/08/22 05:21:47;;;;;;;;;7.75;4.00;;;;;;;;4982250;28;48408;-81
2021/08/22 05:24:13;;;;;;;;;5.00;4.00;;;;;;;;5000253;28;45351;-81
2021/08/22 05:26:38;;;;;;;;;4.00;4.00;;;;;;;;4979920;28;45556;-81
2021/08/22 05:29:03;;;;;;;;;6.33;4.33;;;;;;;;4998818;28;45674;-81
2021/08/22 05:31:28;;;;;;;;;6.67;5.00;;;;;;;;4990130;28;46115;-82
2021/08/22 05:33:53;;;;;;;;;5.00;4.75;;;;;;;;4984153;28;45397;-81
2021/08/22 05:36:20;;;;;;;;;3.67;3.67;;;;;;;;4984226;28;45639;-82
2021/08/22 05:38:45;;;;;;;;;7.25;3.75;;;;;;;;4983875;28;45451;-81
2021/08/22 05:41:10;;;;;;;;;6.75;4.50;;;;;;;;4983623;28;45309;-81
2021/08/22 05:43:36;;;;;;;;;6.67;5.00;;;;;;;;4999374;28;45329;-81
2021/08/22 05:46:01;;;;;;;;;7.67;4.00;;;;;;;;5003660;28;45455;-81
2021/08/22 05:48:26;;;;;;;;;5.75;4.00;;;;;;;;5003066;28;45211;-81
2021/08/22 05:50:52;;;;;;;;;6.00;5.00;;;;;;;;5003554;28;45434;-81
2021/08/22 05:53:17;;;;;;;;;5.75;4.00;;;;;;;;5003125;28;45238;-81
2021/08/22 05:55:42;;;;;;;;;8.00;4.00;;;;;;;;5003299;28;45248;-80
2021/08/22 05:58:08;;;;;;;;;5.33;4.33;;;;;;;;4984583;28;45485;-80
2021/08/22 06:00:33;;;;;;;;;5.25;4.50;;;;;;;;4980649;28;47216;-80
2021/08/22 06:02:58;;;;;;;;;5.33;4.00;;;;;;;;4997050;28;45218;-80
2021/08/22 06:05:23;;;;;;;;;6.00;4.00;;;;;;;;5003102;28;45310;-80
2021/08/22 06:07:48;;;;;;;;;5.00;5.00;;;;;;;;5002729;28;45163;-80
2021/08/22 06:10:14;;;;;;;;;5.50;5.00;;;;;;;;5002777;28;45320;-80
2021/08/22 06:12:39;;;;;;;;;7.33;4.00;;;;;;;;4984934;28;45248;-80
2021/08/22 06:15:05;;;;;;;;;7.00;4.75;;;;;;;;5002525;28;45591;-80
2021/08/22 06:17:30;;;;;;;;;7.00;4.00;;;;;;;;5001184;28;45508;-80
2021/08/22 06:19:55;;;;;;;;;6.00;6.00;;;;;;;;5002902;28;45549;-80
2021/08/22 06:22:21;;;;;;;;;2.67;2.00;;;;;;;;5002911;28;45482;-80
2021/08/22 06:24:46;;;;;;;;;6.00;4.25;;;;;;;;5003041;28;45536;-80
2021/08/22 06:27:14;;;;;;;;;5.25;4.50;;;;;;;;5001812;28;45437;-80
2021/08/22 06:29:39;;;;;;;;;7.00;3.25;;;;;;;;5002299;28;46098;-80
2021/08/22 06:32:04;;;;;;;;;5.00;4.00;;;;;;;;4985559;28;46084;-80
2021/08/22 06:34:30;;;;;;;;;6.75;5.00;;;;;;;;5003315;28;45444;-80
2021/08/22 06:36:55;;;;;;;;;6.33;4.67;;;;;;;;4985212;28;45518;-80
2021/08/22 06:39:20;;;;;;;;;8.00;6.00;;;;;;;;4983722;28;47170;-80
2021/08/22 06:41:45;;;;;;;;;5.67;3.00;;;;;;;;5002628;28;45689;-80
2021/08/22 06:44:13;;;;;;;;;8.00;5.00;;;;;;;;5002117;28;45335;-80
2021/08/22 06:46:38;;;;;;;;;8.25;4.75;;;;;;;;5003311;28;45171;-79
2021/08/22 06:49:03;;;;;;;;;4.00;3.75;;;;;;;;4984888;28;47128;-80
2021/08/22 06:51:29;;;;;;;;;5.00;4.67;;;;;;;;4995793;28;45223;-80
2021/08/22 06:53:55;;;;;;;;;6.75;5.50;;;;;;;;4996056;28;45155;-80
2021/08/22 06:56:20;;;;;;;;;5.25;4.00;;;;;;;;5002910;28;45459;-81
2021/08/22 06:58:45;;;;;;;;;3.00;3.00;;;;;;;;5002681;28;45521;-81
2021/08/22 07:01:11;;;;;;;;;6.33;4.33;;;;;;;;5010113;28;45352;-80
2021/08/22 07:03:37;;;;;;;;;4.75;4.75;;;;;;;;5003421;28;45479;-80
2021/08/22 07:06:02;;;;;;;;;4.75;4.75;;;;;;;;5002743;28;45562;-80
2021/08/22 07:08:27;;;;;;;;;3.00;3.00;;;;;;;;5003558;28;45423;-81
2021/08/22 07:10:52;;;;;;;;;3.00;3.00;;;;;;;;5004416;28;45443;-81
2021/08/22 07:13:18;;;;;;;;;7.00;4.00;;;;;;;;4989255;28;45451;-80
2021/08/22 07:15:43;;;;;;;;;6.00;4.00;;;;;;;;5004732;28;45364;-80
2021/08/22 07:18:08;;;;;;;;;6.00;4.00;;;;;;;;5003951;28;45435;-81
2021/08/22 07:20:33;;;;;;;;;4.67;3.00;;;;;;;;5006255;28;45344;-81
2021/08/22 07:22:59;;;;;;;;;4.25;4.00;;;;;;;;5006375;28;45285;-81
2021/08/22 07:25:24;;;;;;;;;4.00;3.00;;;;;;;;4986798;28;45518;-81
2021/08/22 07:27:49;;;;;;;;;4.00;3.25;;;;;;;;5003075;28;45497;-80
2021/08/22 07:30:15;;;;;;;;;5.50;3.00;;;;;;;;4982023;28;45503;-82
2021/08/22 07:32:41;;;;;;;;;4.00;2.25;;;;;;;;4967947;28;45567;-82
2021/08/22 07:35:06;;;;;;;;;4.00;3.25;;;;;;;;4982487;28;45429;-82
2021/08/22 07:37:31;;;;;;;;;3.75;3.00;;;;;;;;4997073;28;45307;-82
2021/08/22 07:39:57;;;;;;;;;3.75;2.75;;;;;;;;5002599;28;45333;-82
2021/08/22 07:42:22;;;;;;;;;2.25;2.00;;;;;;;;4984825;28;45211;-82
2021/08/22 07:44:47;;;;;;;;;4.50;4.50;;;;;;;;4984112;28;45488;-82
2021/08/22 07:47:12;;;;;;;;;4.33;3.00;;;;;;;;5001801;28;46105;-81
2021/08/22 07:49:38;;;;;;;;;3.00;3.00;;;;;;;;5002416;28;45134;-81
2021/08/22 07:52:03;;;;;;;;;6.50;3.00;;;;;;;;4984409;28;45338;-82
2021/08/22 07:54:28;;;;;;;;;2.75;2.75;;;;;;;;5000496;28;45451;-81
2021/08/22 07:56:53;;;;;;;;;3.75;3.75;;;;;;;;5001141;28;46033;-82
2021/08/22 07:59:19;;;;;;;;;2.00;2.00;;;;;;;;5001661;28;45291;-82
2021/08/22 08:01:44;;;;;;;;;4.00;3.00;;;;;;;;4984261;28;45154;-83
2021/08/22 08:04:09;;;;;;;;;3.00;2.00;;;;;;;;4992267;28;45247;-82
2021/08/22 08:06:34;;;;;;;;;2.67;2.67;;;;;;;;5001247;28;45340;-81
2021/08/22 08:09:00;;;;;;;;;4.00;3.00;;;;;;;;5004307;28;45293;-82
2021/08/22 08:11:25;;;;;;;;;6.75;3.00;;;;;;;;4987093;28;45723;-82
2021/08/22 08:13:51;;;;;;;;;4.25;3.75;;;;;;;;5004838;28;45453;-82
2021/08/22 08:16:16;;;;;;;;;2.67;2.67;;;;;;;;4978678;28;48246;-82
2021/08/22 08:18:41;;;;;;;;;3.00;3.00;;;;;;;;5002192;28;45373;-82
2021/08/22 08:21:06;;;;;;;;;3.00;3.00;;;;;;;;4987632;28;45519;-82
2021/08/22 08:23:32;;;;;;;;;3.75;1.50;;;;;;;;5003446;28;45309;-82
2021/08/22 08:25:57;;;;;;;;;2.33;1.33;;;;;;;;4995460;28;45490;-83
2021/08/22 08:28:23;;;;;;;;;4.00;1.00;;;;;;;;4997746;28;45491;-83
2021/08/22 08:30:48;;;;;;;;;1.00;1.00;;;;;;;;4996264;28;45357;-83
2021/08/22 08:33:13;;;;;;;;;1.00;1.00;;;;;;;;4995114;28;45461;-83
2021/08/22 08:35:38;;;;;;;;;2.50;2.00;;;;;;;;5003855;28;46440;-83
2021/08/22 08:38:04;;;;;;;;;1.00;1.00;;;;;;;;5005651;28;45688;-83
2021/08/22 08:40:29;;;;;;;;;2.00;1.00;;;;;;;;5009831;28;45336;-85
2021/08/22 08:42:58;;;;;;;;;0.67;0.67;;;;;;;;4983796;28;45480;-84
2021/08/22 08:45:23;;;;;;;;;1.50;1.50;;;;;;;;4999424;28;45439;-84
2021/08/22 08:47:49;;;;;;;;;2.75;2.75;;;;;;;;4998944;28;45373;-84
2021/08/22 08:50:22;;;;;;;;;3.00;1.25;;;;;;;;5000002;28;45536;-83
2021/08/22 08:52:58;;;;;;;;;2.00;2.00;;;;;;;;4998512;28;45171;-84
2021/08/22 08:55:25;;;;;;;;;1.00;1.00;;;;;;;;4984405;28;47386;-85
2021/08/22 08:57:50;;;;;;;;;3.25;1.75;;;;;;;;5002315;28;45462;-87
2021/08/22 09:00:16;;;;;;;;;2.50;1.00;;;;;;;;4988372;28;45337;-83
2021/08/22 09:02:41;;;;;;;;;2.75;1.00;;;;;;;;5000440;28;45550;-83
2021/08/22 09:05:11;;;;;;;;;1.00;1.00;;;;;;;;5008018;28;45470;-84
2021/08/22 09:07:52;;;;;;;;;1.00;1.00;;;;;;;;4994198;28;45210;-84
2021/08/22 09:10:37;;;;;;;;;0.75;0.00;;;;;;;;4996943;28;45328;-86
2021/08/22 09:13:03;;;;;;;;;2.50;2.50;;;;;;;;4994410;28;45401;-86
2021/08/22 09:16:00;;;;;;;;;4.00;2.33;;;;;;;;5002185;28;46222;-85
2021/08/22 09:18:46;;;;;;;;;1.75;1.75;;;;;;;;4989744;28;45517;-85
2021/08/22 09:21:23;;;;;;;;;2.00;2.00;;;;;;;;4996849;28;45134;-85
2021/08/22 09:23:57;;;;;;;;;2.25;2.25;;;;;;;;5005582;28;45304;-85
2021/08/22 09:26:41;;;;;;;;;2.00;2.00;;;;;;;;5004862;28;46192;-85
2021/08/22 09:29:25;;;;;;;;;2.00;2.00;;;;;;;;5002829;28;45402;-85
2021/08/22 09:32:09;;;;;;;;;2.25;1.50;;;;;;;;5001759;28;45516;-85
2021/08/22 09:34:53;;;;;;;;;2.00;2.00;;;;;;;;4993058;28;45408;-85
2021/08/22 09:37:45;;;;;;;;;2.00;2.00;;;;;;;;4983124;28;47075;-84
2021/08/22 09:40:45;;;;;;;;;4.00;2.75;;;;;;;;4985442;28;45163;-84
2021/08/22 09:43:29;;;;;;;;;3.75;2.75;;;;;;;;5001591;28;45384;-84
2021/08/22 09:46:00;;;;;;;;;2.00;2.00;;;;;;;;5004836;28;45696;-84
2021/08/22 09:48:44;;;;;;;;;2.00;2.00;;;;;;;;5000519;28;45377;-84
2021/08/22 09:51:28;;;;;;;;;1.50;1.50;;;;;;;;4999958;28;45156;-84
2021/08/22 09:54:05;;;;;;;;;2.00;2.00;;;;;;;;5001164;28;45238;-84
2021/08/22 09:56:49;;;;;;;;;3.00;3.00;;;;;;;;4998801;28;45326;-84
2021/08/22 09:59:14;;;;;;;;;1.25;1.25;;;;;;;;5000473;28;45504;-84
2021/08/22 10:01:39;;;;;;;;;2.00;2.00;;;;;;;;5000651;28;45215;-85
2021/08/22 10:04:20;;;;;;;;;4.00;1.00;;;;;;;;4984241;28;45547;-84
2021/08/22 10:07:08;;;;;;;;;2.25;2.00;;;;;;;;5002717;28;45415;-84
2021/08/22 10:09:42;;;;;;;;;3.00;2.00;;;;;;;;4982849;28;45575;-84
2021/08/22 10:12:07;;;;;;;;;2.00;2.00;;;;;;;;4988705;28;45562;-84
2021/08/22 10:14:36;;;;;;;;;3.00;3.00;;;;;;;;4984023;28;45285;-84
2021/08/22 10:17:01;;;;;;;;;1.00;1.00;;;;;;;;5003115;28;45504;-84
2021/08/22 10:19:29;;;;;;;;;2.00;0.75;;;;;;;;4985613;28;47506;-84
2021/08/22 10:22:13;;;;;;;;;1.00;1.00;;;;;;;;4988795;28;45474;-85
2021/08/22 10:24:38;;;;;;;;;2.00;1.00;;;;;;;;4970831;28;45454;-90
2021/08/22 10:27:11;;;;;;;;;1.00;0.25;;;;;;;;4990561;28;45420;-83
2021/08/22 10:29:49;;;;;;;;;0.75;0.75;;;;;;;;5001319;28;45420;-80
2021/08/22 10:32:14;;;;;;;;;2.50;1.00;;;;;;;;5001481;28;45436;-80
2021/08/22 10:34:40;;;;;;;;;0.25;0.00;;;;;;;;5001169;28;44763;-80
2021/08/22 10:37:25;;;;;;;;;0.25;0.25;;;;;;;;5004812;28;45243;-80
2021/08/22 10:39:50;;;;;;;;;1.00;1.00;;;;;;;;4998049;28;45575;-80
2021/08/22 10:42:16;;;;;;;;;1.50;0.75;;;;;;;;4996499;28;45327;-83
2021/08/22 10:44:42;;;;;;;;;1.00;1.00;;;;;;;;5003340;28;45244;-80
2021/08/22 10:47:08;;;;;;;;;0.50;0.50;;;;;;;;4979826;28;45893;-80
2021/08/22 10:49:52;;;;;;;;;0.00;0.00;;;;;;;;4994656;28;45462;-80
2021/08/22 10:52:23;;;;;;;;;0.00;0.00;;;;;;;;4998243;28;45451;-80
2021/08/22 10:55:20;;;;;;;;;0.00;0.00;;;;;;;;5003060;28;45403;-80
2021/08/22 10:57:49;;;;;;;;;1.75;1.00;;;;;;;;4975676;28;45725;-80
2021/08/22 11:00:21;;;;;;;;;1.25;0.00;;;;;;;;5000407;28;45408;-80
2021/08/22 11:02:47;;;;;;;;;0.75;0.00;;;;;;;;4996065;28;45326;-80
2021/08/22 11:05:22;;;;;;;;;0.00;0.00;;;;;;;;4978301;28;45340;-80
2021/08/22 11:07:51;;;;;;;;;0.00;0.00;;;;;;;;5001576;28;45613;-80
2021/08/22 11:10:17;;;;;;;;;0.00;0.00;;;;;;;;5001345;28;45759;-80
2021/08/22 11:12:43;;;;;;;;;0.00;0.00;;;;;;;;5009034;28;45430;-80
2021/08/22 11:15:20;;;;;;;;;2.00;0.00;;;;;;;;5002494;28;45425;-80
2021/08/22 11:17:49;;;;;;;;;0.00;0.00;;;;;;;;5001804;28;45467;-81
2021/08/22 11:20:16;;;;;;;;;0.25;0.00;;;;;;;;4993564;28;46287;-81
2021/08/22 11:22:42;;;;;;;;;0.25;0.25;;;;;;;;4987450;28;45439;-84
2021/08/22 11:25:08;;;;;;;;;0.00;0.00;;;;;;;;4983115;28;45332;-82
2021/08/22 11:27:33;;;;;;;;;2.00;0.75;;;;;;;;5004548;28;45332;-81
2021/08/22 11:29:59;;;;;;;;;1.00;1.00;;;;;;;;4980451;28;47642;-81
2021/08/22 11:32:26;;;;;;;;;0.25;0.25;;;;;;;;5006062;28;45444;-81
2021/08/22 11:34:51;;;;;;;;;1.50;0.50;;;;;;;;4986470;28;45290;-81
2021/08/22 11:37:17;;;;;;;;;0.75;0.75;;;;;;;;4988221;28;45236;-81
2021/08/22 11:39:43;;;;;;;;;1.75;1.00;;;;;;;;5004299;28;46298;-81
2021/08/22 11:42:08;;;;;;;;;3.75;3.00;;;;;;;;5001869;28;45274;-80
2021/08/22 11:44:33;;;;;;;;;2.25;2.25;;;;;;;;4994065;28;45295;-81
2021/08/22 11:46:59;;;;;;;;;2.00;1.00;;;;;;;;4999050;28;45467;-81
2021/08/22 11:49:24;;;;;;;;;4.25;2.00;;;;;;;;5001007;28;46475;-81
2021/08/22 11:51:51;;;;;;;;;2.00;2.00;;;;;;;;5002625;28;45319;-86
2021/08/22 11:54:16;;;;;;;;;3.00;3.00;;;;;;;;4979519;28;45524;-82
2021/08/22 11:56:42;;;;;;;;;3.00;1.25;;;;;;;;4994543;28;45608;-82
2021/08/22 11:59:26;;;;;;;;;2.00;2.00;;;;;;;;4984278;28;47214;-82
2021/08/22 12:02:11;;;;;;;;;3.25;2.00;;;;;;;;4999964;28;45377;-82
2021/08/22 12:04:36;;;;;;;;;1.75;1.75;;;;;;;;5000241;28;45358;-81
2021/08/22 12:07:02;;;;;;;;;2.00;2.00;;;;;;;;4989799;28;45825;-81
2021/08/22 12:09:27;;;;;;;;;2.25;2.00;;;;;;;;4990727;28;46152;-81
2021/08/22 12:11:53;;;;;;;;;1.00;1.00;;;;;;;;5001823;28;45305;-81
2021/08/22 12:14:19;;;;;;;;;1.00;1.00;;;;;;;;4998046;28;45408;-81
2021/08/22 12:16:55;;;;;;;;;5.25;1.00;;;;;;;;4989828;28;45334;-81
2021/08/22 12:19:21;;;;;;;;;1.00;1.00;;;;;;;;4997091;28;46095;-81
2021/08/22 12:21:47;;;;;;;;;2.00;1.75;;;;;;;;5001776;28;45425;-81
2021/08/22 12:24:19;;;;;;;;;1.75;1.00;;;;;;;;4999936;28;47912;-82
2021/08/22 12:26:48;;;;;;;;;4.00;3.50;;;;;;;;4998044;28;45428;-82
2021/08/22 12:29:14;;;;;;;;;4.00;3.50;;;;;;;;5004315;28;45322;-82
2021/08/22 12:31:40;;;;;;;;;4.50;4.00;;;;;;;;5005098;28;45179;-83
2021/08/22 12:34:07;;;;;;;;;3.50;2.00;;;;;;;;5004437;28;45234;-82
2021/08/22 12:36:36;;;;;;;;;2.00;2.00;;;;;;;;5002404;28;45408;-82
2021/08/22 12:39:01;;;;;;;;;2.50;2.00;;;;;;;;5004756;28;45372;-83
2021/08/22 12:41:27;;;;;;;;;1.50;1.00;;;;;;;;4990787;28;45342;-84
2021/08/22 12:43:53;;;;;;;;;3.00;3.00;;;;;;;;4999568;28;45459;-82
2021/08/22 12:46:20;;;;;;;;;3.00;3.00;;;;;;;;5000916;28;45472;-81
2021/08/22 12:48:45;;;;;;;;;3.00;1.00;;;;;;;;5002589;28;46278;-83
2021/08/22 12:51:11;;;;;;;;;2.00;2.00;;;;;;;;4994687;28;45517;-82
2021/08/22 12:53:36;;;;;;;;;3.50;1.00;;;;;;;;4993822;28;45507;-82
2021/08/22 12:56:02;;;;;;;;;4.00;1.25;;;;;;;;4999131;28;45802;-83
2021/08/22 12:58:27;;;;;;;;;2.00;2.00;;;;;;;;5000942;28;45419;-82
2021/08/22 13:00:52;;;;;;;;;1.00;1.00;;;;;;;;4999513;28;45333;-83
2021/08/22 13:03:18;;;;;;;;;4.00;2.33;;;;;;;;4996765;28;45507;-82
2021/08/22 13:05:43;;;;;;;;;3.00;1.00;;;;;;;;4999403;28;46086;-83
2021/08/22 13:08:08;;;;;;;;;1.25;1.25;;;;;;;;4982311;28;48463;-84
2021/08/22 13:10:33;;;;;;;;;0.00;0.00;;;;;;;;4972651;28;45636;-84
2021/08/22 13:12:59;;;;;;;;;4.00;1.00;;;;;;;;5002450;28;45340;-85
2021/08/22 13:15:24;;;;;;;;;1.75;1.75;;;;;;;;4980064;28;45640;-85
2021/08/22 13:17:49;;;;;;;;;3.50;2.00;;;;;;;;4989488;28;45582;-85
2021/08/22 13:20:14;;;;;;;;;1.00;1.00;;;;;;;;4980371;28;45416;-85
2021/08/22 13:22:41;;;;;;;;;1.75;1.75;;;;;;;;4987368;28;45497;-85
2021/08/22 13:25:06;;;;;;;;;3.00;2.00;;;;;;;;4999853;28;45602;-86
2021/08/22 13:27:31;;;;;;;;;1.00;1.00;;;;;;;;4981258;28;47414;-86
2021/08/22 13:29:56;;;;;;;;;3.00;1.75;;;;;;;;4978168;28;45277;-86
2021/08/22 13:32:21;;;;;;;;;3.00;1.00;;;;;;;;4999997;28;45257;-86
2021/08/22 13:34:47;;;;;;;;;2.33;2.33;;;;;;;;4999701;28;45247;-86
2021/08/22 13:37:12;;;;;;;;;2.00;2.00;;;;;;;;4993541;28;45488;-86
2021/08/22 13:39:37;;;;;;;;;1.67;1.67;;;;;;;;4985346;28;45468;-86
2021/08/22 13:42:02;;;;;;;;;2.00;2.00;;;;;;;;5001044;28;45267;-86
2021/08/22 13:44:28;;;;;;;;;2.75;1.75;;;;;;;;4972302;28;45456;-86
2021/08/22 13:46:53;;;;;;;;;1.67;1.67;;;;;;;;4990325;28;45471;-86
2021/08/22 13:49:18;;;;;;;;;4.00;3.00;;;;;;;;4999491;28;45428;-86
2021/08/22 13:51:43;;;;;;;;;2.75;2.00;;;;;;;;4998613;28;45544;-85
2021/08/22 13:54:10;;;;;;;;;2.50;2.00;;;;;;;;5006577;28;45436;-86
2021/08/22 13:56:35;;;;;;;;;1.25;1.00;;;;;;;;5003801;28;45542;-86
2021/08/22 13:59:02;;;;;;;;;3.00;2.00;;;;;;;;5000372;28;45387;-85
2021/08/22 14:01:27;;;;;;;;;1.50;1.50;;;;;;;;4999572;28;45372;-85
2021/08/22 14:03:53;;;;;;;;;3.00;1.50;;;;;;;;4983913;28;46153;-86
2021/08/22 14:06:18;;;;;;;;;2.75;2.00;;;;;;;;5000245;28;45616;-85
2021/08/22 14:08:43;;;;;;;;;3.75;2.00;;;;;;;;5002183;28;45375;-85
2021/08/22 14:11:09;;;;;;;;;3.33;2.00;;;;;;;;4990443;28;45444;-85
2021/08/22 14:13:34;;;;;;;;;2.50;1.75;;;;;;;;4997770;28;45317;-85
2021/08/22 14:15:59;;;;;;;;;1.25;1.00;;;;;;;;4998730;28;46376;-85
2021/08/22 14:18:24;;;;;;;;;2.50;2.00;;;;;;;;4996874;28;45353;-86
2021/08/22 14:20:50;;;;;;;;;5.00;2.75;;;;;;;;4994870;28;45437;-86
2021/08/22 14:23:15;;;;;;;;;2.75;1.50;;;;;;;;4972845;28;45399;-85
2021/08/22 14:25:40;;;;;;;;;2.25;1.50;;;;;;;;5003221;28;45396;-85
2021/08/22 14:28:06;;;;;;;;;1.75;1.75;;;;;;;;4980015;28;45451;-85
2021/08/22 14:30:31;;;;;;;;;2.00;1.75;;;;;;;;5003525;28;45159;-85
2021/08/22 14:32:56;;;;;;;;;1.50;1.50;;;;;;;;5002355;28;45389;-85
2021/08/22 14:35:21;;;;;;;;;2.50;2.00;;;;;;;;5004403;28;46946;-86
2021/08/22 14:37:47;;;;;;;;;2.00;2.00;;;;;;;;5005038;28;45311;-85
2021/08/22 14:40:12;;;;;;;;;3.67;2.00;;;;;;;;4994404;28;45267;-85
2021/08/22 14:42:37;;;;;;;;;3.75;2.75;;;;;;;;5014547;28;45320;-85